Portada
METAR-TAF:

METAR-TAF

Aeroports :

Aeroport de Tànger Ibn Battuta

Tànger, Marroc

latitud: 35-44N, longitud: 005-54W, altitud: 19 m

Observació

L'informe es va fer fa 28 minuts, a les 10:00 UTC
Vent 10 kt del Sud-Oest, variant entre Sud i Oest/Sud-Oest
Temperatura 24°C
Humitat 57%
Pressió 1016 hPa
Visibilitat 10 km o més
Núvols disperses a una alçada de 3000 ft

METAR: GMTT 051000Z 23010KT 180V250 9999 SCT030 24/15 Q1016 NOSIG

Hora: 11:28 (10:28 UTC)

Pronòstic

L'informe es va fer fa 5 hores i 28 minuts, a les 05:00 UTC
Pronòstic vàlid del 05 a les 06 UTC al 06 a les 12 UTC
Vent 4 kt del Sud
Visibilitat 10 km o més
Núvols disperses a una alçada de 1600 ft
Núvols disperses a una alçada de 3000 ft
Probabilitat 40% :
Temporalment
l' 06 a les 01 UTC al 06 a les 06 UTC
Visibilitat: 4000 m
boirina

TAF: GMTT 050500Z 0506/0612 17004KT 9999 SCT016 SCT030 PROB40 TEMPO 0601/0606 4000 BR

Observacions i pronòstics meteorològics de més de 4000 aeroports (METAR i TAF).

Les estacions disponibles són els punts grocs i vermells al mapa.

Posi el ratolí al punt desitjat per veure el nom de l'estació.

Feu clic per veure les observacions i els pronòstics meteorològics.

Per canviar el mapa: feu clic els botons verds amb una creu de color negre per apropar; al botó verd amb un guió per allunyar la imatge; o en les fletxes verdes per a mapes adjacents.


METAR-TAF: